sensor_id;sensor_type;location;lat;lon;timestamp;P1;durP1;ratioP1;P2;durP2;ratioP2
70780;SDS011;59514;48.810;2.134;2022-07-05T00:02:20;1.23;;;0.70;;
70780;SDS011;59514;48.810;2.134;2022-07-05T00:04:46;3.15;;;0.88;;
70780;SDS011;59514;48.810;2.134;2022-07-05T00:07:12;2.72;;;1.00;;
70780;SDS011;59514;48.810;2.134;2022-07-05T00:09:44;2.35;;;0.85;;
70780;SDS011;59514;48.810;2.134;2022-07-05T00:12:11;1.52;;;0.70;;
70780;SDS011;59514;48.810;2.134;2022-07-05T00:14:40;4.15;;;0.85;;
70780;SDS011;59514;48.810;2.134;2022-07-05T00:17:07;3.35;;;0.70;;
70780;SDS011;59514;48.810;2.134;2022-07-05T00:19:32;2.65;;;0.80;;
70780;SDS011;59514;48.810;2.134;2022-07-05T00:21:58;5.45;;;1.00;;
70780;SDS011;59514;48.810;2.134;2022-07-05T00:24:24;2.20;;;0.70;;
70780;SDS011;59514;48.810;2.134;2022-07-05T00:26:50;4.75;;;0.98;;
70780;SDS011;59514;48.810;2.134;2022-07-05T00:29:16;3.80;;;0.98;;
70780;SDS011;59514;48.810;2.134;2022-07-05T00:31:41;1.33;;;0.70;;
70780;SDS011;59514;48.810;2.134;2022-07-05T00:34:06;2.30;;;0.88;;
70780;SDS011;59514;48.810;2.134;2022-07-05T00:36:32;1.77;;;1.23;;
70780;SDS011;59514;48.810;2.134;2022-07-05T00:38:57;0.93;;;0.80;;
70780;SDS011;59514;48.810;2.134;2022-07-05T00:41:22;2.10;;;0.70;;
70780;SDS011;59514;48.810;2.134;2022-07-05T00:43:55;2.00;;;1.10;;
70780;SDS011;59514;48.810;2.134;2022-07-05T00:46:23;2.80;;;0.95;;
70780;SDS011;59514;48.810;2.134;2022-07-05T00:48:48;2.47;;;1.05;;
70780;SDS011;59514;48.810;2.134;2022-07-05T00:51:14;1.33;;;0.85;;
70780;SDS011;59514;48.810;2.134;2022-07-05T00:53:40;4.03;;;1.13;;
70780;SDS011;59514;48.810;2.134;2022-07-05T00:56:05;2.55;;;1.00;;
70780;SDS011;59514;48.810;2.134;2022-07-05T00:58:32;3.10;;;1.52;;
70780;SDS011;59514;48.810;2.134;2022-07-05T01:00:58;3.38;;;0.90;;
70780;SDS011;59514;48.810;2.134;2022-07-05T01:03:26;2.55;;;1.13;;
70780;SDS011;59514;48.810;2.134;2022-07-05T01:05:52;2.17;;;1.00;;
70780;SDS011;59514;48.810;2.134;2022-07-05T01:08:18;2.78;;;1.00;;
70780;SDS011;59514;48.810;2.134;2022-07-05T01:10:44;3.00;;;0.90;;
70780;SDS011;59514;48.810;2.134;2022-07-05T01:13:10;1.63;;;0.90;;
70780;SDS011;59514;48.810;2.134;2022-07-05T01:15:35;3.92;;;1.05;;
70780;SDS011;59514;48.810;2.134;2022-07-05T01:18:02;2.95;;;0.88;;
70780;SDS011;59514;48.810;2.134;2022-07-05T01:20:30;2.42;;;0.88;;
70780;SDS011;59514;48.810;2.134;2022-07-05T01:22:56;2.72;;;1.20;;
70780;SDS011;59514;48.810;2.134;2022-07-05T01:25:25;2.03;;;1.15;;
70780;SDS011;59514;48.810;2.134;2022-07-05T01:27:52;3.20;;;1.00;;
70780;SDS011;59514;48.810;2.134;2022-07-05T01:30:18;3.03;;;1.00;;
70780;SDS011;59514;48.810;2.134;2022-07-05T01:32:44;3.15;;;1.13;;
70780;SDS011;59514;48.810;2.134;2022-07-05T01:35:10;3.35;;;1.15;;
70780;SDS011;59514;48.810;2.134;2022-07-05T01:37:38;2.92;;;1.02;;
70780;SDS011;59514;48.810;2.134;2022-07-05T01:40:05;3.00;;;1.35;;
70780;SDS011;59514;48.810;2.134;2022-07-05T01:42:31;1.27;;;0.63;;
70780;SDS011;59514;48.810;2.134;2022-07-05T01:44:56;2.47;;;0.77;;
70780;SDS011;59514;48.810;2.134;2022-07-05T01:47:22;3.30;;;0.82;;
70780;SDS011;59514;48.810;2.134;2022-07-05T01:49:48;2.78;;;1.58;;
70780;SDS011;59514;48.810;2.134;2022-07-05T01:52:17;2.75;;;0.80;;
70780;SDS011;59514;48.810;2.134;2022-07-05T01:54:46;2.83;;;0.93;;
70780;SDS011;59514;48.810;2.134;2022-07-05T01:57:11;3.65;;;0.90;;
70780;SDS011;59514;48.810;2.134;2022-07-05T01:59:37;1.67;;;0.70;;
70780;SDS011;59514;48.810;2.134;2022-07-05T02:02:03;3.30;;;0.95;;
70780;SDS011;59514;48.810;2.134;2022-07-05T02:04:30;3.60;;;0.90;;
70780;SDS011;59514;48.810;2.134;2022-07-05T02:06:58;3.50;;;1.30;;
70780;SDS011;59514;48.810;2.134;2022-07-05T02:09:23;1.45;;;0.90;;
70780;SDS011;59514;48.810;2.134;2022-07-05T02:11:49;2.17;;;1.10;;
70780;SDS011;59514;48.810;2.134;2022-07-05T02:14:14;2.30;;;1.00;;
70780;SDS011;59514;48.810;2.134;2022-07-05T02:16:39;2.97;;;0.98;;
70780;SDS011;59514;48.810;2.134;2022-07-05T02:19:05;1.85;;;0.80;;
70780;SDS011;59514;48.810;2.134;2022-07-05T02:21:30;3.60;;;1.00;;
70780;SDS011;59514;48.810;2.134;2022-07-05T02:23:56;2.75;;;1.10;;
70780;SDS011;59514;48.810;2.134;2022-07-05T02:26:21;2.28;;;1.10;;
70780;SDS011;59514;48.810;2.134;2022-07-05T02:28:46;2.88;;;1.02;;
70780;SDS011;59514;48.810;2.134;2022-07-05T02:31:12;3.40;;;1.17;;
70780;SDS011;59514;48.810;2.134;2022-07-05T02:33:37;4.72;;;1.45;;
70780;SDS011;59514;48.810;2.134;2022-07-05T02:36:12;2.83;;;1.20;;
70780;SDS011;59514;48.810;2.134;2022-07-05T02:38:39;3.10;;;1.17;;
70780;SDS011;59514;48.810;2.134;2022-07-05T02:41:05;1.63;;;0.90;;
70780;SDS011;59514;48.810;2.134;2022-07-05T02:43:35;2.70;;;1.13;;
70780;SDS011;59514;48.810;2.134;2022-07-05T02:46:01;3.00;;;1.20;;
70780;SDS011;59514;48.810;2.134;2022-07-05T02:48:27;1.42;;;1.05;;
70780;SDS011;59514;48.810;2.134;2022-07-05T02:50:53;3.28;;;1.10;;
70780;SDS011;59514;48.810;2.134;2022-07-05T02:53:18;4.20;;;1.45;;
70780;SDS011;59514;48.810;2.134;2022-07-05T02:55:43;3.08;;;1.52;;
70780;SDS011;59514;48.810;2.134;2022-07-05T02:58:09;4.15;;;1.20;;
70780;SDS011;59514;48.810;2.134;2022-07-05T03:00:34;3.05;;;1.02;;
70780;SDS011;59514;48.810;2.134;2022-07-05T03:03:00;1.83;;;0.80;;
70780;SDS011;59514;48.810;2.134;2022-07-05T03:05:25;3.63;;;1.08;;
70780;SDS011;59514;48.810;2.134;2022-07-05T03:07:50;3.13;;;1.13;;
70780;SDS011;59514;48.810;2.134;2022-07-05T03:10:15;1.98;;;0.90;;
70780;SDS011;59514;48.810;2.134;2022-07-05T03:12:41;1.15;;;0.80;;
70780;SDS011;59514;48.810;2.134;2022-07-05T03:15:06;3.95;;;1.40;;
70780;SDS011;59514;48.810;2.134;2022-07-05T03:17:32;1.50;;;1.20;;
70780;SDS011;59514;48.810;2.134;2022-07-05T03:19:58;4.20;;;1.27;;
70780;SDS011;59514;48.810;2.134;2022-07-05T03:22:23;5.40;;;1.70;;
70780;SDS011;59514;48.810;2.134;2022-07-05T03:24:48;4.70;;;1.83;;
70780;SDS011;59514;48.810;2.134;2022-07-05T03:27:14;2.22;;;1.40;;
70780;SDS011;59514;48.810;2.134;2022-07-05T03:29:39;5.72;;;1.30;;
70780;SDS011;59514;48.810;2.134;2022-07-05T03:32:04;3.00;;;1.15;;
70780;SDS011;59514;48.810;2.134;2022-07-05T03:34:30;3.75;;;1.55;;
70780;SDS011;59514;48.810;2.134;2022-07-05T03:36:56;5.88;;;1.65;;
70780;SDS011;59514;48.810;2.134;2022-07-05T03:39:21;3.67;;;1.60;;
70780;SDS011;59514;48.810;2.134;2022-07-05T03:41:46;3.45;;;1.45;;
70780;SDS011;59514;48.810;2.134;2022-07-05T03:44:12;3.83;;;1.60;;
70780;SDS011;59514;48.810;2.134;2022-07-05T03:46:37;3.90;;;2.05;;
70780;SDS011;59514;48.810;2.134;2022-07-05T03:49:02;2.85;;;1.60;;
70780;SDS011;59514;48.810;2.134;2022-07-05T03:51:27;4.10;;;1.75;;
70780;SDS011;59514;48.810;2.134;2022-07-05T03:53:53;3.80;;;1.50;;
70780;SDS011;59514;48.810;2.134;2022-07-05T03:56:18;4.72;;;2.45;;
70780;SDS011;59514;48.810;2.134;2022-07-05T03:58:46;3.83;;;1.65;;
70780;SDS011;59514;48.810;2.134;2022-07-05T04:01:14;4.15;;;1.63;;
70780;SDS011;59514;48.810;2.134;2022-07-05T04:03:40;3.95;;;2.00;;
70780;SDS011;59514;48.810;2.134;2022-07-05T04:06:06;3.40;;;1.95;;
70780;SDS011;59514;48.810;2.134;2022-07-05T04:08:32;2.65;;;1.70;;
70780;SDS011;59514;48.810;2.134;2022-07-05T04:10:57;3.38;;;2.10;;
70780;SDS011;59514;48.810;2.134;2022-07-05T04:13:22;4.03;;;1.95;;
70780;SDS011;59514;48.810;2.134;2022-07-05T04:15:48;5.05;;;1.65;;
70780;SDS011;59514;48.810;2.134;2022-07-05T04:18:13;3.67;;;1.98;;
70780;SDS011;59514;48.810;2.134;2022-07-05T04:20:38;3.60;;;1.70;;
70780;SDS011;59514;48.810;2.134;2022-07-05T04:23:04;4.40;;;1.98;;
70780;SDS011;59514;48.810;2.134;2022-07-05T04:25:29;2.72;;;1.83;;
70780;SDS011;59514;48.810;2.134;2022-07-05T04:27:55;3.17;;;2.00;;
70780;SDS011;59514;48.810;2.134;2022-07-05T04:30:22;4.97;;;2.20;;
70780;SDS011;59514;48.810;2.134;2022-07-05T04:32:49;4.07;;;2.10;;
70780;SDS011;59514;48.810;2.134;2022-07-05T04:35:15;5.35;;;2.00;;
70780;SDS011;59514;48.810;2.134;2022-07-05T04:37:41;4.25;;;2.35;;
70780;SDS011;59514;48.810;2.134;2022-07-05T04:40:08;5.72;;;2.75;;
70780;SDS011;59514;48.810;2.134;2022-07-05T04:42:35;2.40;;;2.10;;
70780;SDS011;59514;48.810;2.134;2022-07-05T04:45:01;4.95;;;2.50;;
70780;SDS011;59514;48.810;2.134;2022-07-05T04:47:26;3.03;;;2.47;;
70780;SDS011;59514;48.810;2.134;2022-07-05T04:49:52;4.97;;;2.67;;
70780;SDS011;59514;48.810;2.134;2022-07-05T04:52:18;6.47;;;3.08;;
70780;SDS011;59514;48.810;2.134;2022-07-05T04:54:44;5.25;;;2.47;;
70780;SDS011;59514;48.810;2.134;2022-07-05T04:57:09;4.60;;;2.92;;
70780;SDS011;59514;48.810;2.134;2022-07-05T04:59:34;5.57;;;3.10;;
70780;SDS011;59514;48.810;2.134;2022-07-05T05:02:00;5.50;;;3.15;;
70780;SDS011;59514;48.810;2.134;2022-07-05T05:04:25;4.07;;;2.75;;
70780;SDS011;59514;48.810;2.134;2022-07-05T05:06:50;4.35;;;2.83;;
70780;SDS011;59514;48.810;2.134;2022-07-05T05:09:16;3.97;;;2.90;;
70780;SDS011;59514;48.810;2.134;2022-07-05T05:11:41;6.63;;;3.30;;
70780;SDS011;59514;48.810;2.134;2022-07-05T05:14:06;4.82;;;2.63;;
70780;SDS011;59514;48.810;2.134;2022-07-05T05:16:32;4.82;;;3.40;;
70780;SDS011;59514;48.810;2.134;2022-07-05T05:18:57;6.22;;;3.10;;
70780;SDS011;59514;48.810;2.134;2022-07-05T05:21:22;6.35;;;3.80;;
70780;SDS011;59514;48.810;2.134;2022-07-05T05:23:48;7.85;;;3.38;;
70780;SDS011;59514;48.810;2.134;2022-07-05T05:26:13;6.93;;;3.03;;
70780;SDS011;59514;48.810;2.134;2022-07-05T05:28:39;8.30;;;3.70;;
70780;SDS011;59514;48.810;2.134;2022-07-05T05:31:05;10.27;;;3.65;;
70780;SDS011;59514;48.810;2.134;2022-07-05T05:33:31;6.68;;;3.58;;
70780;SDS011;59514;48.810;2.134;2022-07-05T05:35:56;7.88;;;4.10;;
70780;SDS011;59514;48.810;2.134;2022-07-05T05:38:22;7.55;;;3.60;;
70780;SDS011;59514;48.810;2.134;2022-07-05T05:40:48;7.22;;;3.63;;
70780;SDS011;59514;48.810;2.134;2022-07-05T05:43:13;9.35;;;3.67;;
70780;SDS011;59514;48.810;2.134;2022-07-05T05:45:38;7.65;;;4.03;;
70780;SDS011;59514;48.810;2.134;2022-07-05T05:48:04;9.88;;;4.13;;
70780;SDS011;59514;48.810;2.134;2022-07-05T05:50:31;9.55;;;3.53;;
70780;SDS011;59514;48.810;2.134;2022-07-05T05:52:58;10.43;;;3.63;;
70780;SDS011;59514;48.810;2.134;2022-07-05T05:55:24;6.00;;;3.72;;
70780;SDS011;59514;48.810;2.134;2022-07-05T05:57:51;11.60;;;4.10;;
70780;SDS011;59514;48.810;2.134;2022-07-05T06:00:18;10.52;;;4.05;;
70780;SDS011;59514;48.810;2.134;2022-07-05T06:02:44;8.93;;;4.28;;
70780;SDS011;59514;48.810;2.134;2022-07-05T06:05:10;6.00;;;3.63;;
70780;SDS011;59514;48.810;2.134;2022-07-05T06:07:44;7.95;;;3.58;;
70780;SDS011;59514;48.810;2.134;2022-07-05T06:10:17;7.88;;;3.92;;
70780;SDS011;59514;48.810;2.134;2022-07-05T06:12:50;11.25;;;4.65;;
70780;SDS011;59514;48.810;2.134;2022-07-05T06:15:17;8.95;;;4.00;;
70780;SDS011;59514;48.810;2.134;2022-07-05T06:17:43;10.98;;;4.22;;
70780;SDS011;59514;48.810;2.134;2022-07-05T06:20:10;8.98;;;3.97;;
70780;SDS011;59514;48.810;2.134;2022-07-05T06:22:37;7.63;;;3.97;;
70780;SDS011;59514;48.810;2.134;2022-07-05T06:25:03;11.48;;;4.18;;
70780;SDS011;59514;48.810;2.134;2022-07-05T06:27:29;13.07;;;4.82;;
70780;SDS011;59514;48.810;2.134;2022-07-05T06:29:54;8.07;;;3.85;;
70780;SDS011;59514;48.810;2.134;2022-07-05T06:32:20;7.70;;;3.63;;
70780;SDS011;59514;48.810;2.134;2022-07-05T06:34:46;9.98;;;4.03;;
70780;SDS011;59514;48.810;2.134;2022-07-05T06:37:12;12.35;;;3.85;;
70780;SDS011;59514;48.810;2.134;2022-07-05T06:39:37;9.52;;;3.90;;
70780;SDS011;59514;48.810;2.134;2022-07-05T06:42:02;9.52;;;3.63;;
70780;SDS011;59514;48.810;2.134;2022-07-05T06:44:28;7.45;;;3.47;;
70780;SDS011;59514;48.810;2.134;2022-07-05T06:46:53;7.82;;;3.65;;
70780;SDS011;59514;48.810;2.134;2022-07-05T06:49:18;9.48;;;3.40;;
70780;SDS011;59514;48.810;2.134;2022-07-05T06:51:44;8.48;;;3.25;;
70780;SDS011;59514;48.810;2.134;2022-07-05T06:54:09;6.95;;;3.45;;
70780;SDS011;59514;48.810;2.134;2022-07-05T06:56:34;7.47;;;3.38;;
70780;SDS011;59514;48.810;2.134;2022-07-05T06:59:00;11.63;;;3.70;;
70780;SDS011;59514;48.810;2.134;2022-07-05T07:01:25;8.43;;;3.60;;
70780;SDS011;59514;48.810;2.134;2022-07-05T07:03:50;8.23;;;3.45;;
70780;SDS011;59514;48.810;2.134;2022-07-05T07:06:16;9.45;;;3.47;;
70780;SDS011;59514;48.810;2.134;2022-07-05T07:08:42;7.13;;;3.08;;
70780;SDS011;59514;48.810;2.134;2022-07-05T07:11:26;6.72;;;3.20;;
70780;SDS011;59514;48.810;2.134;2022-07-05T07:13:51;9.20;;;3.70;;
70780;SDS011;59514;48.810;2.134;2022-07-05T07:16:17;7.72;;;2.92;;
70780;SDS011;59514;48.810;2.134;2022-07-05T07:18:42;3.78;;;3.00;;
70780;SDS011;59514;48.810;2.134;2022-07-05T07:21:07;5.28;;;3.00;;
70780;SDS011;59514;48.810;2.134;2022-07-05T07:23:33;9.95;;;3.50;;
70780;SDS011;59514;48.810;2.134;2022-07-05T07:25:58;7.60;;;2.88;;
70780;SDS011;59514;48.810;2.134;2022-07-05T07:28:23;8.05;;;2.78;;
70780;SDS011;59514;48.810;2.134;2022-07-05T07:30:49;6.15;;;2.80;;
70780;SDS011;59514;48.810;2.134;2022-07-05T07:33:14;6.47;;;2.72;;
70780;SDS011;59514;48.810;2.134;2022-07-05T07:35:39;6.00;;;2.63;;
70780;SDS011;59514;48.810;2.134;2022-07-05T07:38:05;6.40;;;2.80;;
70780;SDS011;59514;48.810;2.134;2022-07-05T07:40:30;6.15;;;2.30;;
70780;SDS011;59514;48.810;2.134;2022-07-05T07:42:55;6.82;;;3.05;;
70780;SDS011;59514;48.810;2.134;2022-07-05T07:45:21;7.18;;;2.60;;
70780;SDS011;59514;48.810;2.134;2022-07-05T07:47:46;7.63;;;2.70;;
70780;SDS011;59514;48.810;2.134;2022-07-05T07:50:11;6.40;;;3.00;;
70780;SDS011;59514;48.810;2.134;2022-07-05T07:52:37;5.28;;;2.90;;
70780;SDS011;59514;48.810;2.134;2022-07-05T07:55:03;7.07;;;2.92;;
70780;SDS011;59514;48.810;2.134;2022-07-05T07:57:32;6.35;;;2.22;;
70780;SDS011;59514;48.810;2.134;2022-07-05T07:59:57;6.88;;;2.78;;
70780;SDS011;59514;48.810;2.134;2022-07-05T08:02:22;5.60;;;2.72;;
70780;SDS011;59514;48.810;2.134;2022-07-05T08:04:49;5.35;;;2.97;;
70780;SDS011;59514;48.810;2.134;2022-07-05T08:07:15;4.43;;;2.22;;
70780;SDS011;59514;48.810;2.134;2022-07-05T08:09:42;5.07;;;2.20;;
70780;SDS011;59514;48.810;2.134;2022-07-05T08:12:07;4.22;;;2.35;;
70780;SDS011;59514;48.810;2.134;2022-07-05T08:14:33;5.68;;;2.47;;
70780;SDS011;59514;48.810;2.134;2022-07-05T08:16:58;4.90;;;2.47;;
70780;SDS011;59514;48.810;2.134;2022-07-05T08:19:24;5.55;;;2.30;;
70780;SDS011;59514;48.810;2.134;2022-07-05T08:22:08;5.50;;;2.58;;
70780;SDS011;59514;48.810;2.134;2022-07-05T08:24:34;5.60;;;2.80;;
70780;SDS011;59514;48.810;2.134;2022-07-05T08:27:00;4.30;;;2.13;;
70780;SDS011;59514;48.810;2.134;2022-07-05T08:29:26;6.53;;;2.50;;
70780;SDS011;59514;48.810;2.134;2022-07-05T08:31:51;5.80;;;2.67;;
70780;SDS011;59514;48.810;2.134;2022-07-05T08:34:17;8.23;;;2.50;;
70780;SDS011;59514;48.810;2.134;2022-07-05T08:36:43;4.45;;;2.15;;
70780;SDS011;59514;48.810;2.134;2022-07-05T08:39:09;4.45;;;2.13;;
70780;SDS011;59514;48.810;2.134;2022-07-05T08:41:37;4.32;;;2.10;;
70780;SDS011;59514;48.810;2.134;2022-07-05T08:44:04;4.75;;;2.08;;
70780;SDS011;59514;48.810;2.134;2022-07-05T08:46:30;3.90;;;1.90;;
70780;SDS011;59514;48.810;2.134;2022-07-05T08:48:58;3.83;;;2.05;;
70780;SDS011;59514;48.810;2.134;2022-07-05T08:51:25;3.92;;;2.80;;
70780;SDS011;59514;48.810;2.134;2022-07-05T08:53:52;5.40;;;2.05;;
70780;SDS011;59514;48.810;2.134;2022-07-05T08:56:20;3.60;;;1.50;;
70780;SDS011;59514;48.810;2.134;2022-07-05T08:58:46;2.60;;;1.30;;
70780;SDS011;59514;48.810;2.134;2022-07-05T09:01:12;3.45;;;1.52;;
70780;SDS011;59514;48.810;2.134;2022-07-05T09:06:11;3.97;;;1.58;;
70780;SDS011;59514;48.810;2.134;2022-07-05T09:08:39;5.47;;;1.63;;
70780;SDS011;59514;48.810;2.134;2022-07-05T09:11:09;4.65;;;1.90;;
70780;SDS011;59514;48.810;2.134;2022-07-05T09:13:38;5.25;;;1.83;;
70780;SDS011;59514;48.810;2.134;2022-07-05T09:16:05;4.35;;;2.00;;
70780;SDS011;59514;48.810;2.134;2022-07-05T09:18:38;4.13;;;1.60;;
70780;SDS011;59514;48.810;2.134;2022-07-05T09:21:20;3.25;;;1.80;;
70780;SDS011;59514;48.810;2.134;2022-07-05T09:24:08;3.47;;;1.52;;
70780;SDS011;59514;48.810;2.134;2022-07-05T09:26:36;3.15;;;1.65;;
70780;SDS011;59514;48.810;2.134;2022-07-05T09:29:05;2.97;;;1.60;;
70780;SDS011;59514;48.810;2.134;2022-07-05T09:31:33;4.07;;;1.63;;
70780;SDS011;59514;48.810;2.134;2022-07-05T09:34:06;4.00;;;1.50;;
70780;SDS011;59514;48.810;2.134;2022-07-05T09:39:37;6.60;;;2.50;;
70780;SDS011;59514;48.810;2.134;2022-07-05T09:44:51;2.75;;;1.77;;
70780;SDS011;59514;48.810;2.134;2022-07-05T09:47:18;6.57;;;1.70;;
70780;SDS011;59514;48.810;2.134;2022-07-05T09:49:54;3.88;;;1.80;;
70780;SDS011;59514;48.810;2.134;2022-07-05T09:55:12;3.28;;;1.52;;
70780;SDS011;59514;48.810;2.134;2022-07-05T09:57:42;1.98;;;1.48;;
70780;SDS011;59514;48.810;2.134;2022-07-05T10:00:15;5.07;;;1.90;;
70780;SDS011;59514;48.810;2.134;2022-07-05T10:07:42;5.95;;;1.88;;
70780;SDS011;59514;48.810;2.134;2022-07-05T10:10:10;5.13;;;1.88;;
70780;SDS011;59514;48.810;2.134;2022-07-05T10:12:37;4.03;;;1.80;;
70780;SDS011;59514;48.810;2.134;2022-07-05T10:15:04;3.53;;;1.83;;
70780;SDS011;59514;48.810;2.134;2022-07-05T10:17:34;2.78;;;1.55;;
70780;SDS011;59514;48.810;2.134;2022-07-05T10:20:04;5.18;;;1.92;;
70780;SDS011;59514;48.810;2.134;2022-07-05T10:22:48;2.85;;;1.75;;
70780;SDS011;59514;48.810;2.134;2022-07-05T10:25:14;3.40;;;1.67;;
70780;SDS011;59514;48.810;2.134;2022-07-05T10:27:40;4.18;;;2.05;;
70780;SDS011;59514;48.810;2.134;2022-07-05T10:30:07;2.38;;;1.85;;
70780;SDS011;59514;48.810;2.134;2022-07-05T10:32:33;5.43;;;2.50;;
70780;SDS011;59514;48.810;2.134;2022-07-05T10:35:00;3.83;;;2.00;;
70780;SDS011;59514;48.810;2.134;2022-07-05T10:37:28;3.22;;;2.08;;
70780;SDS011;59514;48.810;2.134;2022-07-05T10:39:56;4.47;;;1.70;;
70780;SDS011;59514;48.810;2.134;2022-07-05T10:42:23;1.48;;;1.38;;
70780;SDS011;59514;48.810;2.134;2022-07-05T10:44:52;2.88;;;1.70;;
70780;SDS011;59514;48.810;2.134;2022-07-05T10:47:17;2.92;;;1.48;;
70780;SDS011;59514;48.810;2.134;2022-07-05T10:49:47;3.78;;;1.70;;
70780;SDS011;59514;48.810;2.134;2022-07-05T10:52:25;4.93;;;1.77;;
70780;SDS011;59514;48.810;2.134;2022-07-05T10:57:44;3.78;;;1.60;;
70780;SDS011;59514;48.810;2.134;2022-07-05T11:00:41;2.95;;;1.35;;
70780;SDS011;59514;48.810;2.134;2022-07-05T11:03:31;3.78;;;2.22;;
70780;SDS011;59514;48.810;2.134;2022-07-05T11:06:00;4.30;;;1.60;;
70780;SDS011;59514;48.810;2.134;2022-07-05T11:08:26;4.40;;;1.48;;
70780;SDS011;59514;48.810;2.134;2022-07-05T11:11:07;2.80;;;1.38;;
70780;SDS011;59514;48.810;2.134;2022-07-05T11:13:35;2.08;;;1.50;;
70780;SDS011;59514;48.810;2.134;2022-07-05T11:18:46;2.95;;;1.77;;
70780;SDS011;59514;48.810;2.134;2022-07-05T11:21:21;3.63;;;1.70;;
70780;SDS011;59514;48.810;2.134;2022-07-05T11:23:47;2.88;;;1.60;;
70780;SDS011;59514;48.810;2.134;2022-07-05T11:26:15;1.77;;;1.60;;
70780;SDS011;59514;48.810;2.134;2022-07-05T11:28:42;2.08;;;1.23;;
70780;SDS011;59514;48.810;2.134;2022-07-05T11:34:14;5.55;;;1.60;;
70780;SDS011;59514;48.810;2.134;2022-07-05T11:36:40;3.58;;;1.40;;
70780;SDS011;59514;48.810;2.134;2022-07-05T11:39:09;2.35;;;1.33;;
70780;SDS011;59514;48.810;2.134;2022-07-05T11:41:37;2.05;;;1.23;;
70780;SDS011;59514;48.810;2.134;2022-07-05T11:44:06;3.58;;;1.58;;
70780;SDS011;59514;48.810;2.134;2022-07-05T11:46:33;3.47;;;2.10;;
70780;SDS011;59514;48.810;2.134;2022-07-05T11:49:01;3.35;;;2.15;;
70780;SDS011;59514;48.810;2.134;2022-07-05T11:51:27;4.40;;;1.88;;
70780;SDS011;59514;48.810;2.134;2022-07-05T11:53:53;2.03;;;1.40;;
70780;SDS011;59514;48.810;2.134;2022-07-05T11:56:19;2.55;;;1.60;;
70780;SDS011;59514;48.810;2.134;2022-07-05T11:58:47;1.92;;;1.13;;
70780;SDS011;59514;48.810;2.134;2022-07-05T12:01:12;2.53;;;1.52;;
70780;SDS011;59514;48.810;2.134;2022-07-05T12:03:38;1.75;;;1.35;;
70780;SDS011;59514;48.810;2.134;2022-07-05T12:06:13;2.63;;;1.45;;
70780;SDS011;59514;48.810;2.134;2022-07-05T12:08:40;2.55;;;1.20;;
70780;SDS011;59514;48.810;2.134;2022-07-05T12:11:06;2.40;;;1.33;;
70780;SDS011;59514;48.810;2.134;2022-07-05T12:13:50;1.55;;;1.23;;
70780;SDS011;59514;48.810;2.134;2022-07-05T12:16:15;4.00;;;2.10;;
70780;SDS011;59514;48.810;2.134;2022-07-05T12:18:52;3.25;;;2.20;;
70780;SDS011;59514;48.810;2.134;2022-07-05T12:21:20;3.63;;;2.08;;
70780;SDS011;59514;48.810;2.134;2022-07-05T12:23:46;1.75;;;1.27;;
70780;SDS011;59514;48.810;2.134;2022-07-05T12:26:12;1.83;;;1.27;;
70780;SDS011;59514;48.810;2.134;2022-07-05T12:28:38;1.67;;;1.10;;
70780;SDS011;59514;48.810;2.134;2022-07-05T12:31:15;2.33;;;1.42;;
70780;SDS011;59514;48.810;2.134;2022-07-05T12:33:45;2.47;;;1.50;;
70780;SDS011;59514;48.810;2.134;2022-07-05T12:36:11;2.90;;;1.05;;
70780;SDS011;59514;48.810;2.134;2022-07-05T12:38:38;1.48;;;1.10;;
70780;SDS011;59514;48.810;2.134;2022-07-05T12:41:03;3.38;;;1.00;;
70780;SDS011;59514;48.810;2.134;2022-07-05T12:43:29;3.78;;;1.92;;
70780;SDS011;59514;48.810;2.134;2022-07-05T12:46:04;2.42;;;1.40;;
70780;SDS011;59514;48.810;2.134;2022-07-05T12:48:31;2.45;;;1.08;;
70780;SDS011;59514;48.810;2.134;2022-07-05T12:51:01;3.00;;;1.20;;
70780;SDS011;59514;48.810;2.134;2022-07-05T12:53:27;2.10;;;1.20;;
70780;SDS011;59514;48.810;2.134;2022-07-05T12:56:12;1.30;;;0.88;;
70780;SDS011;59514;48.810;2.134;2022-07-05T12:58:58;2.80;;;1.00;;
70780;SDS011;59514;48.810;2.134;2022-07-05T13:01:36;6.10;;;3.83;;
70780;SDS011;59514;48.810;2.134;2022-07-05T13:14:40;1.90;;;0.95;;
70780;SDS011;59514;48.810;2.134;2022-07-05T13:17:09;1.23;;;0.80;;
70780;SDS011;59514;48.810;2.134;2022-07-05T13:19:36;1.17;;;0.93;;
70780;SDS011;59514;48.810;2.134;2022-07-05T13:22:04;2.22;;;1.05;;
70780;SDS011;59514;48.810;2.134;2022-07-05T13:24:29;4.03;;;1.25;;
70780;SDS011;59514;48.810;2.134;2022-07-05T13:26:56;1.58;;;1.00;;
70780;SDS011;59514;48.810;2.134;2022-07-05T13:29:21;3.20;;;1.08;;
70780;SDS011;59514;48.810;2.134;2022-07-05T13:31:47;3.45;;;1.48;;
70780;SDS011;59514;48.810;2.134;2022-07-05T13:34:12;2.50;;;1.90;;
70780;SDS011;59514;48.810;2.134;2022-07-05T13:36:38;2.33;;;1.00;;
70780;SDS011;59514;48.810;2.134;2022-07-05T13:39:03;1.92;;;0.93;;
70780;SDS011;59514;48.810;2.134;2022-07-05T13:41:29;1.73;;;1.63;;
70780;SDS011;59514;48.810;2.134;2022-07-05T13:43:56;2.15;;;1.35;;
70780;SDS011;59514;48.810;2.134;2022-07-05T13:46:22;3.47;;;0.95;;
70780;SDS011;59514;48.810;2.134;2022-07-05T13:48:47;1.63;;;0.80;;
70780;SDS011;59514;48.810;2.134;2022-07-05T13:51:13;3.60;;;1.08;;
70780;SDS011;59514;48.810;2.134;2022-07-05T13:53:38;1.67;;;0.80;;
70780;SDS011;59514;48.810;2.134;2022-07-05T13:56:04;1.95;;;0.93;;
70780;SDS011;59514;48.810;2.134;2022-07-05T13:58:30;2.67;;;0.80;;
70780;SDS011;59514;48.810;2.134;2022-07-05T14:00:56;2.97;;;1.00;;
70780;SDS011;59514;48.810;2.134;2022-07-05T14:03:21;1.35;;;1.02;;
70780;SDS011;59514;48.810;2.134;2022-07-05T14:05:47;2.92;;;1.10;;
70780;SDS011;59514;48.810;2.134;2022-07-05T14:08:12;7.97;;;1.30;;
70780;SDS011;59514;48.810;2.134;2022-07-05T14:10:38;1.75;;;0.95;;
70780;SDS011;59514;48.810;2.134;2022-07-05T14:13:04;2.83;;;0.90;;
70780;SDS011;59514;48.810;2.134;2022-07-05T14:15:30;2.78;;;0.95;;
70780;SDS011;59514;48.810;2.134;2022-07-05T14:17:56;2.67;;;1.30;;
70780;SDS011;59514;48.810;2.134;2022-07-05T14:20:24;3.00;;;1.95;;
70780;SDS011;59514;48.810;2.134;2022-07-05T14:22:50;1.45;;;1.13;;
70780;SDS011;59514;48.810;2.134;2022-07-05T14:25:15;2.10;;;0.73;;
70780;SDS011;59514;48.810;2.134;2022-07-05T14:27:41;1.38;;;0.70;;
70780;SDS011;59514;48.810;2.134;2022-07-05T14:30:08;2.15;;;0.73;;
70780;SDS011;59514;48.810;2.134;2022-07-05T14:32:34;1.55;;;0.80;;
70780;SDS011;59514;48.810;2.134;2022-07-05T14:35:00;3.67;;;1.20;;
70780;SDS011;59514;48.810;2.134;2022-07-05T14:37:25;1.23;;;0.80;;
70780;SDS011;59514;48.810;2.134;2022-07-05T14:39:50;4.38;;;1.10;;
70780;SDS011;59514;48.810;2.134;2022-07-05T14:42:16;1.02;;;0.80;;
70780;SDS011;59514;48.810;2.134;2022-07-05T14:44:41;2.08;;;0.77;;
70780;SDS011;59514;48.810;2.134;2022-07-05T14:47:07;2.00;;;1.20;;
70780;SDS011;59514;48.810;2.134;2022-07-05T14:49:32;2.47;;;0.90;;
70780;SDS011;59514;48.810;2.134;2022-07-05T14:51:57;2.05;;;0.95;;
70780;SDS011;59514;48.810;2.134;2022-07-05T14:54:23;3.35;;;1.20;;
70780;SDS011;59514;48.810;2.134;2022-07-05T14:56:50;1.42;;;1.00;;
70780;SDS011;59514;48.810;2.134;2022-07-05T14:59:15;3.70;;;1.00;;
70780;SDS011;59514;48.810;2.134;2022-07-05T15:01:41;2.85;;;1.10;;
70780;SDS011;59514;48.810;2.134;2022-07-05T15:04:06;1.35;;;1.00;;
70780;SDS011;59514;48.810;2.134;2022-07-05T15:06:32;1.10;;;0.80;;
70780;SDS011;59514;48.810;2.134;2022-07-05T15:08:57;2.70;;;1.08;;
70780;SDS011;59514;48.810;2.134;2022-07-05T15:11:23;2.45;;;1.10;;
70780;SDS011;59514;48.810;2.134;2022-07-05T15:13:48;2.47;;;1.10;;
70780;SDS011;59514;48.810;2.134;2022-07-05T15:16:14;2.30;;;1.17;;
70780;SDS011;59514;48.810;2.134;2022-07-05T15:18:40;1.85;;;1.00;;
70780;SDS011;59514;48.810;2.134;2022-07-05T15:21:05;4.00;;;1.10;;
70780;SDS011;59514;48.810;2.134;2022-07-05T15:23:31;1.48;;;0.88;;